createdAt,value
2019-04-03T00:04:52.182Z,21.39
2019-04-03T00:09:55.748Z,21.00
2019-04-03T00:14:59.357Z,20.68
2019-04-03T00:20:03.066Z,20.39
2019-04-03T00:25:07.420Z,20.22
2019-04-03T00:30:10.982Z,20.50
2019-04-03T00:35:14.709Z,21.59
2019-04-03T00:40:18.218Z,21.95
2019-04-03T00:45:24.204Z,22.00
2019-04-03T00:50:27.223Z,22.30
2019-04-03T00:55:30.749Z,22.35
2019-04-03T01:00:34.324Z,22.37
2019-04-03T01:05:37.894Z,22.38
2019-04-03T01:10:41.473Z,22.49
2019-04-03T01:15:45.047Z,22.13
2019-04-03T01:20:48.721Z,21.91
2019-04-03T01:25:52.392Z,22.05
2019-04-03T01:30:56.014Z,21.87
2019-04-03T01:35:59.590Z,21.76
2019-04-03T01:41:03.151Z,21.32
2019-04-03T01:46:06.911Z,21.27
2019-04-03T01:51:10.522Z,20.93
2019-04-03T01:56:14.084Z,20.19
2019-04-03T02:01:17.737Z,20.13
2019-04-03T02:06:21.311Z,20.90
2019-04-03T02:11:25.057Z,21.57
2019-04-03T02:16:28.623Z,21.84
2019-04-03T02:21:32.227Z,22.20
2019-04-03T02:26:35.927Z,22.70
2019-04-03T02:31:39.736Z,22.79
2019-04-03T02:36:45.010Z,22.59
2019-04-03T02:41:48.687Z,22.58
2019-04-03T02:46:52.261Z,22.55
2019-04-03T02:51:56.027Z,22.40
2019-04-03T02:56:59.633Z,22.34
2019-04-03T03:02:03.206Z,22.26
2019-04-03T03:07:06.775Z,22.10
2019-04-03T03:12:10.624Z,21.76
2019-04-03T03:17:14.450Z,21.35
2019-04-03T03:22:18.965Z,21.10
2019-04-03T03:27:22.714Z,20.64
2019-04-03T03:32:32.540Z,20.17
2019-04-03T03:37:34.031Z,19.98
2019-04-03T03:42:37.316Z,19.83
2019-04-03T03:47:40.897Z,19.61
2019-04-03T03:52:44.449Z,19.55
2019-04-03T03:57:48.010Z,19.44
2019-04-03T04:02:51.925Z,20.67
2019-04-03T04:07:55.935Z,21.47
2019-04-03T04:12:59.505Z,21.64
2019-04-03T04:18:03.925Z,22.06
2019-04-03T04:23:07.636Z,22.48
2019-04-03T04:28:11.415Z,22.63
2019-04-03T04:33:17.021Z,22.52
2019-04-03T04:38:20.385Z,22.56
2019-04-03T04:43:23.942Z,22.39
2019-04-03T04:48:27.613Z,22.30
2019-04-03T04:53:31.153Z,22.26
2019-04-03T04:58:34.726Z,21.91
2019-04-03T05:03:38.432Z,21.61
2019-04-03T05:08:41.954Z,21.31
2019-04-03T05:13:46.794Z,21.05
2019-04-03T05:18:50.901Z,21.00
2019-04-03T05:23:56.332Z,20.78
2019-04-03T05:28:59.824Z,20.54
2019-04-03T05:34:03.455Z,20.38
2019-04-03T05:39:08.128Z,20.27
2019-04-03T05:44:11.758Z,20.13
2019-04-03T05:49:15.490Z,20.16
2019-04-03T05:54:19.061Z,20.21
2019-04-03T05:59:22.640Z,20.47
2019-04-03T06:04:26.332Z,20.96
2019-04-03T06:09:30.052Z,20.99
2019-04-03T06:14:33.671Z,21.02
2019-04-03T06:19:39.510Z,21.24
2019-04-03T06:24:42.647Z,21.28
2019-04-03T06:29:46.221Z,21.27
2019-04-03T06:34:49.888Z,21.38
2019-04-03T06:39:53.468Z,21.62
2019-04-03T06:44:57.029Z,21.79
2019-04-03T06:50:00.617Z,22.05
2019-04-03T06:55:05.930Z,22.53
2019-04-03T07:00:09.499Z,22.29
2019-04-03T07:05:13.121Z,23.50
2019-04-03T07:10:25.062Z,22.79
2019-04-03T07:15:23.989Z,22.73
2019-04-03T07:20:27.467Z,22.68
2019-04-03T07:25:33.331Z,22.92
2019-04-03T07:30:36.355Z,22.61
2019-04-03T07:35:40.646Z,22.57
2019-04-03T07:40:44.288Z,22.54
2019-04-03T07:45:47.859Z,22.50
2019-04-03T07:50:51.432Z,22.53
2019-04-03T07:55:55.959Z,22.52
2019-04-03T08:00:59.833Z,22.43
2019-04-03T08:06:04.463Z,22.39
2019-04-03T08:11:08.185Z,22.30
2019-04-03T08:16:11.919Z,22.33
2019-04-03T08:21:15.505Z,22.23
2019-04-03T08:26:19.908Z,22.23
2019-04-03T08:31:23.593Z,22.18
2019-04-03T08:36:27.298Z,22.18
2019-04-03T08:41:31.112Z,22.18
2019-04-03T08:46:34.744Z,22.15
2019-04-03T08:51:38.364Z,22.12
2019-04-03T08:56:42.183Z,22.14
2019-04-03T09:01:46.039Z,22.11
2019-04-03T09:06:49.850Z,22.10
2019-04-03T09:11:53.542Z,22.08
2019-04-03T09:16:57.118Z,22.12
2019-04-03T09:22:00.816Z,22.13
2019-04-03T09:27:05.041Z,22.10
2019-04-03T09:32:08.650Z,22.15
2019-04-03T09:37:12.290Z,22.17
2019-04-03T09:42:15.994Z,22.12
2019-04-03T09:47:19.616Z,22.20
2019-04-03T09:52:24.042Z,22.21
2019-04-03T09:57:30.673Z,22.25
2019-04-03T10:02:33.834Z,22.31
2019-04-03T10:07:37.603Z,22.34
2019-04-03T10:12:43.007Z,22.35
2019-04-03T10:17:46.508Z,22.40
2019-04-03T10:22:50.068Z,22.40
2019-04-03T10:27:53.637Z,22.44
2019-04-03T10:32:59.578Z,22.43
2019-04-03T10:38:02.494Z,22.44
2019-04-03T10:43:06.651Z,22.43
2019-04-03T10:48:10.431Z,22.44
2019-04-03T10:53:14.026Z,22.42
2019-04-03T10:58:17.841Z,22.39
2019-04-03T11:03:21.747Z,22.37
2019-04-03T11:08:25.410Z,22.35
2019-04-03T11:13:29.117Z,22.32
2019-04-03T11:18:32.846Z,22.29
2019-04-03T11:23:42.153Z,22.26
2019-04-03T11:28:41.830Z,22.25
2019-04-03T11:33:46.301Z,22.21
2019-04-03T11:38:50.500Z,22.15
2019-04-03T11:43:54.191Z,22.12
2019-04-03T11:48:57.942Z,22.12
2019-04-03T11:54:01.676Z,22.13
2019-04-03T11:59:05.292Z,22.11
2019-04-03T12:04:12.056Z,22.12
2019-04-03T12:09:14.365Z,22.11
2019-04-03T12:14:18.702Z,22.09
2019-04-03T12:19:22.606Z,22.19
2019-04-03T12:24:26.249Z,22.15
2019-04-03T12:29:29.874Z,22.15
2019-04-03T12:34:36.631Z,22.15
2019-04-03T12:39:39.932Z,22.12
2019-04-03T12:44:43.700Z,22.30
2019-04-03T12:49:47.264Z,22.38
2019-04-03T12:54:52.948Z,22.55
2019-04-03T12:59:56.706Z,22.71
2019-04-03T13:05:05.045Z,22.89
2019-04-03T13:10:08.574Z,23.03
2019-04-03T13:15:12.570Z,23.03
2019-04-03T13:20:16.690Z,23.01
2019-04-03T13:25:21.535Z,23.02
2019-04-03T13:30:25.899Z,22.99
2019-04-03T13:35:29.795Z,22.95
2019-04-03T13:40:34.938Z,22.97
2019-04-03T13:45:39.042Z,22.90
2019-04-03T13:50:45.067Z,22.86
2019-04-03T13:55:48.097Z,22.92
2019-04-03T14:00:59.572Z,22.90
2019-04-03T14:05:57.075Z,22.86
2019-04-03T14:11:00.641Z,22.79
2019-04-03T14:21:07.669Z,22.70
2019-04-03T14:26:14.277Z,22.69
2019-04-03T14:31:17.828Z,22.68
2019-04-03T14:36:21.763Z,22.61
2019-04-03T14:41:25.379Z,22.67
2019-04-03T14:46:29.146Z,22.64
2019-04-03T14:51:32.818Z,22.63
2019-04-03T14:56:36.879Z,22.57
2019-04-03T15:01:40.984Z,22.58
2019-04-03T15:06:46.347Z,22.56
2019-04-03T15:11:50.310Z,22.51
2019-04-03T15:16:54.023Z,22.50
2019-04-03T15:22:01.486Z,22.44
2019-04-03T15:27:03.072Z,22.41
2019-04-03T15:32:06.688Z,22.41
2019-04-03T15:37:13.313Z,22.50
2019-04-03T15:42:15.668Z,22.75
2019-04-03T15:47:33.210Z,22.81
2019-04-03T15:52:25.135Z,22.91
2019-04-03T15:57:28.782Z,23.18
2019-04-03T16:02:32.405Z,23.28
2019-04-03T16:07:36.091Z,23.38
2019-04-03T16:12:42.964Z,23.48
2019-04-03T16:17:45.239Z,23.45
2019-04-03T16:22:49.215Z,23.46
2019-04-03T16:27:53.237Z,23.43
2019-04-03T16:32:59.685Z,23.35
2019-04-03T16:38:02.340Z,23.32
2019-04-03T16:43:06.473Z,23.23
2019-04-03T16:48:10.080Z,23.20
2019-04-03T16:53:13.673Z,23.12
2019-04-03T16:58:17.524Z,23.03
2019-04-03T17:03:21.360Z,22.95
2019-04-03T17:08:25.947Z,22.87
2019-04-03T17:13:30.432Z,22.76
2019-04-03T17:18:34.062Z,22.73
2019-04-03T17:23:37.594Z,22.63
2019-04-03T17:28:41.733Z,22.57
2019-04-03T17:33:45.583Z,22.61
2019-04-03T17:38:50.277Z,22.48
2019-04-03T17:43:53.912Z,22.43
2019-04-03T17:48:57.530Z,22.39
2019-04-03T17:54:01.100Z,22.28
2019-04-03T17:59:05.199Z,22.18
2019-04-03T18:04:09.137Z,22.57
2019-04-03T18:09:12.844Z,22.90
2019-04-03T18:14:16.394Z,23.19
2019-04-03T18:19:20.071Z,23.42
2019-04-03T18:24:23.774Z,23.57
2019-04-03T18:29:27.605Z,23.62
2019-04-03T18:34:31.231Z,23.54
2019-04-03T18:39:34.860Z,23.45
2019-04-03T18:44:38.482Z,23.38
2019-04-03T18:49:42.187Z,23.22
2019-04-03T18:54:45.806Z,23.19
2019-04-03T18:59:49.529Z,23.06
2019-04-03T19:05:01.728Z,22.90
2019-04-03T19:15:03.794Z,22.65
2019-04-03T19:20:10.610Z,22.47
2019-04-03T19:25:13.049Z,22.32
2019-04-03T19:30:16.674Z,22.22
2019-04-03T19:35:20.310Z,22.09
2019-04-03T19:40:23.909Z,22.02
2019-04-03T19:45:27.881Z,21.94
2019-04-03T19:50:31.791Z,21.86
2019-04-03T19:55:35.998Z,21.75
2019-04-03T20:00:39.588Z,21.75
2019-04-03T20:05:44.055Z,21.72
2019-04-03T20:10:49.179Z,21.64
2019-04-03T20:15:54.569Z,21.54
2019-04-03T20:20:58.266Z,21.90
2019-04-03T20:31:05.599Z,23.19
2019-04-03T20:36:09.733Z,23.33
2019-04-03T20:41:13.313Z,23.39
2019-04-03T20:46:16.877Z,23.46
2019-04-03T20:51:20.456Z,23.52
2019-04-03T20:56:24.074Z,23.64
2019-04-03T21:01:27.721Z,23.46
2019-04-03T21:06:31.384Z,23.35
2019-04-03T21:11:35.067Z,23.50
2019-04-03T21:16:38.618Z,23.39
2019-04-03T21:21:42.203Z,23.03
2019-04-03T21:26:45.776Z,22.79
2019-04-03T21:31:49.329Z,22.68
2019-04-03T21:36:52.933Z,22.50
2019-04-03T21:41:56.586Z,22.44
2019-04-03T21:47:00.137Z,22.11
2019-04-03T21:52:03.715Z,21.98
2019-04-03T21:57:07.284Z,21.81
2019-04-03T22:02:10.851Z,21.68
2019-04-03T22:07:14.428Z,21.57
2019-04-03T22:12:18.005Z,21.45
2019-04-03T22:17:21.989Z,21.28
2019-04-03T22:22:26.066Z,21.28
2019-04-03T22:27:29.685Z,21.18
2019-04-03T22:32:33.293Z,21.04
2019-04-03T22:37:36.873Z,21.13
2019-04-03T22:42:40.525Z,21.93
2019-04-03T22:47:44.188Z,22.62
2019-04-03T22:52:47.846Z,22.98
2019-04-03T22:57:51.436Z,23.39
2019-04-03T23:02:55.018Z,23.73
2019-04-03T23:07:58.608Z,23.78
2019-04-03T23:13:04.493Z,23.72
2019-04-03T23:18:07.511Z,23.68
2019-04-03T23:23:11.077Z,23.54
2019-04-03T23:28:14.677Z,23.43
2019-04-03T23:33:18.247Z,23.39
2019-04-03T23:38:21.826Z,23.45
2019-04-03T23:43:25.684Z,23.19
2019-04-03T23:48:29.256Z,22.85
2019-04-03T23:53:32.845Z,22.69
2019-04-03T23:58:36.424Z,22.43
